sensor_id;sensor_type;location;lat;lon;timestamp;pressure;altitude;pressure_sealevel;temperature;humidity
34103;BME280;20381;54.498;18.206;2023-05-16T00:02:08;98317.02;;;11.89;100.00
34103;BME280;20381;54.498;18.206;2023-05-16T00:04:35;98312.86;;;11.92;100.00
34103;BME280;20381;54.498;18.206;2023-05-16T00:07:01;98309.90;;;11.91;100.00
34103;BME280;20381;54.498;18.206;2023-05-16T00:09:28;98307.52;;;11.88;100.00
34103;BME280;20381;54.498;18.206;2023-05-16T00:11:54;98308.21;;;11.90;100.00
34103;BME280;20381;54.498;18.206;2023-05-16T00:14:21;98305.25;;;11.89;100.00
34103;BME280;20381;54.498;18.206;2023-05-16T00:16:47;98302.24;;;11.82;100.00
34103;BME280;20381;54.498;18.206;2023-05-16T00:19:13;98305.30;;;11.81;100.00
34103;BME280;20381;54.498;18.206;2023-05-16T00:21:40;98305.30;;;11.81;100.00
34103;BME280;20381;54.498;18.206;2023-05-16T00:24:07;98282.35;;;11.68;100.00
34103;BME280;20381;54.498;18.206;2023-05-16T00:26:34;98282.35;;;11.68;100.00
34103;BME280;20381;54.498;18.206;2023-05-16T00:29:00;98298.42;;;11.80;100.00
34103;BME280;20381;54.498;18.206;2023-05-16T00:31:27;98301.86;;;11.81;100.00
34103;BME280;20381;54.498;18.206;2023-05-16T00:33:53;98299.50;;;11.83;100.00
34103;BME280;20381;54.498;18.206;2023-05-16T00:36:20;98296.09;;;11.89;100.00
34103;BME280;20381;54.498;18.206;2023-05-16T00:38:46;98296.20;;;11.93;100.00
34103;BME280;20381;54.498;18.206;2023-05-16T00:41:13;98278.37;;;11.86;100.00
34103;BME280;20381;54.498;18.206;2023-05-16T00:43:39;98295.52;;;11.96;100.00
34103;BME280;20381;54.498;18.206;2023-05-16T00:46:05;98295.52;;;11.96;100.00
34103;BME280;20381;54.498;18.206;2023-05-16T00:48:32;98288.74;;;11.94;100.00
34103;BME280;20381;54.498;18.206;2023-05-16T00:50:59;98288.74;;;11.94;100.00
34103;BME280;20381;54.498;18.206;2023-05-16T00:53:26;98289.80;;;11.91;100.00
34103;BME280;20381;54.498;18.206;2023-05-16T00:55:52;98282.69;;;11.93;100.00
34103;BME280;20381;54.498;18.206;2023-05-16T00:58:21;98283.51;;;11.94;100.00
34103;BME280;20381;54.498;18.206;2023-05-16T01:00:48;98273.28;;;11.91;100.00
34103;BME280;20381;54.498;18.206;2023-05-16T01:03:15;98282.90;;;11.96;100.00
34103;BME280;20381;54.498;18.206;2023-05-16T01:05:41;98279.11;;;11.94;100.00
34103;BME280;20381;54.498;18.206;2023-05-16T01:08:07;98279.11;;;11.94;100.00
34103;BME280;20381;54.498;18.206;2023-05-16T01:14:08;98273.98;;;11.93;100.00
34103;BME280;20381;54.498;18.206;2023-05-16T01:16:21;98276.36;;;11.96;100.00
34103;BME280;20381;54.498;18.206;2023-05-16T01:18:56;98256.73;;;11.90;100.00
34103;BME280;20381;54.498;18.206;2023-05-16T01:21:33;98270.80;;;12.06;100.00
34103;BME280;20381;54.498;18.206;2023-05-16T01:24:13;98274.48;;;12.09;100.00
34103;BME280;20381;54.498;18.206;2023-05-16T01:26:42;98279.71;;;12.09;100.00
34103;BME280;20381;54.498;18.206;2023-05-16T01:29:09;98259.75;;;12.08;100.00
34103;BME280;20381;54.498;18.206;2023-05-16T01:31:36;98272.94;;;12.12;100.00
34103;BME280;20381;54.498;18.206;2023-05-16T01:34:02;98275.69;;;12.16;100.00
34103;BME280;20381;54.498;18.206;2023-05-16T01:39:54;98279.14;;;12.22;100.00
34103;BME280;20381;54.498;18.206;2023-05-16T01:42:20;98279.14;;;12.22;100.00
34103;BME280;20381;54.498;18.206;2023-05-16T01:45:07;98274.02;;;12.26;100.00
34103;BME280;20381;54.498;18.206;2023-05-16T01:47:35;98264.27;;;12.17;100.00
34103;BME280;20381;54.498;18.206;2023-05-16T01:50:14;98278.17;;;12.23;100.00
34103;BME280;20381;54.498;18.206;2023-05-16T01:55:20;98266.40;;;12.23;100.00
34103;BME280;20381;54.498;18.206;2023-05-16T01:57:44;98274.97;;;12.25;100.00
34103;BME280;20381;54.498;18.206;2023-05-16T02:00:12;98279.24;;;12.26;100.00
34103;BME280;20381;54.498;18.206;2023-05-16T02:02:38;98272.25;;;12.27;100.00
34103;BME280;20381;54.498;18.206;2023-05-16T02:05:05;98273.77;;;12.18;100.00
34103;BME280;20381;54.498;18.206;2023-05-16T02:07:32;98279.37;;;12.14;100.00
34103;BME280;20381;54.498;18.206;2023-05-16T02:09:59;98273.31;;;12.13;100.00
34103;BME280;20381;54.498;18.206;2023-05-16T02:12:25;98282.56;;;12.06;100.00
34103;BME280;20381;54.498;18.206;2023-05-16T02:14:51;98282.56;;;12.06;100.00
34103;BME280;20381;54.498;18.206;2023-05-16T02:17:17;98276.50;;;12.00;100.00
34103;BME280;20381;54.498;18.206;2023-05-16T02:19:43;98285.98;;;11.90;100.00
34103;BME280;20381;54.498;18.206;2023-05-16T02:22:09;98284.16;;;11.84;100.00
34103;BME280;20381;54.498;18.206;2023-05-16T02:24:36;98284.16;;;11.84;100.00
34103;BME280;20381;54.498;18.206;2023-05-16T02:27:03;98289.91;;;11.90;100.00
34103;BME280;20381;54.498;18.206;2023-05-16T02:29:29;98289.91;;;11.90;100.00
34103;BME280;20381;54.498;18.206;2023-05-16T02:31:57;98282.78;;;11.92;100.00
34103;BME280;20381;54.498;18.206;2023-05-16T02:34:23;98288.98;;;11.91;100.00
34103;BME280;20381;54.498;18.206;2023-05-16T02:36:49;98291.59;;;11.91;100.00
34103;BME280;20381;54.498;18.206;2023-05-16T02:39:16;98288.02;;;11.92;100.00
34103;BME280;20381;54.498;18.206;2023-05-16T02:41:42;98290.98;;;11.93;100.00
34103;BME280;20381;54.498;18.206;2023-05-16T02:44:08;98287.67;;;11.91;100.00
34103;BME280;20381;54.498;18.206;2023-05-16T02:46:34;98289.99;;;11.82;100.00
34103;BME280;20381;54.498;18.206;2023-05-16T02:49:01;98285.23;;;11.76;100.00
34103;BME280;20381;54.498;18.206;2023-05-16T02:51:28;98288.66;;;11.71;100.00
34103;BME280;20381;54.498;18.206;2023-05-16T02:53:54;98290.31;;;11.72;100.00
34103;BME280;20381;54.498;18.206;2023-05-16T02:56:27;98292.92;;;11.72;100.00
34103;BME280;20381;54.498;18.206;2023-05-16T02:58:54;98293.89;;;11.71;100.00
34103;BME280;20381;54.498;18.206;2023-05-16T03:01:20;98278.74;;;11.58;100.00
34103;BME280;20381;54.498;18.206;2023-05-16T03:03:47;98290.28;;;11.61;100.00
34103;BME280;20381;54.498;18.206;2023-05-16T03:06:13;98296.47;;;11.60;100.00
34103;BME280;20381;54.498;18.206;2023-05-16T03:08:39;98295.61;;;11.59;100.00
34103;BME280;20381;54.498;18.206;2023-05-16T03:11:06;98292.39;;;11.56;100.00
34103;BME280;20381;54.498;18.206;2023-05-16T03:13:32;98296.80;;;11.55;100.00
34103;BME280;20381;54.498;18.206;2023-05-16T03:15:59;98304.04;;;11.52;100.00
34103;BME280;20381;54.498;18.206;2023-05-16T03:18:26;98296.42;;;11.49;100.00
34103;BME280;20381;54.498;18.206;2023-05-16T03:20:52;98308.99;;;11.43;100.00
34103;BME280;20381;54.498;18.206;2023-05-16T03:23:20;98314.22;;;11.43;100.00
34103;BME280;20381;54.498;18.206;2023-05-16T03:25:46;98312.91;;;11.43;100.00
34103;BME280;20381;54.498;18.206;2023-05-16T03:28:12;98323.23;;;11.45;100.00
34103;BME280;20381;54.498;18.206;2023-05-16T03:30:38;98319.45;;;11.43;100.00
34103;BME280;20381;54.498;18.206;2023-05-16T03:33:05;98320.38;;;11.42;100.00
34103;BME280;20381;54.498;18.206;2023-05-16T03:35:34;98328.44;;;11.39;100.00
34103;BME280;20381;54.498;18.206;2023-05-16T03:38:02;98329.84;;;11.32;100.00
34103;BME280;20381;54.498;18.206;2023-05-16T03:40:28;98334.95;;;11.34;100.00
34103;BME280;20381;54.498;18.206;2023-05-16T03:42:55;98326.28;;;11.33;100.00
34103;BME280;20381;54.498;18.206;2023-05-16T03:45:21;98326.50;;;11.30;100.00
34103;BME280;20381;54.498;18.206;2023-05-16T03:47:48;98335.30;;;11.29;100.00
34103;BME280;20381;54.498;18.206;2023-05-16T03:50:15;98335.30;;;11.29;100.00
34103;BME280;20381;54.498;18.206;2023-05-16T03:52:42;98346.58;;;11.30;100.00
34103;BME280;20381;54.498;18.206;2023-05-16T03:55:09;98339.79;;;11.27;100.00
34103;BME280;20381;54.498;18.206;2023-05-16T03:57:36;98335.62;;;11.25;100.00
34103;BME280;20381;54.498;18.206;2023-05-16T04:00:04;98330.59;;;11.16;100.00
34103;BME280;20381;54.498;18.206;2023-05-16T04:02:33;98345.84;;;11.04;100.00
34103;BME280;20381;54.498;18.206;2023-05-16T04:05:00;98350.03;;;10.93;100.00
34103;BME280;20381;54.498;18.206;2023-05-16T04:07:26;98344.08;;;10.91;100.00
34103;BME280;20381;54.498;18.206;2023-05-16T04:09:54;98356.52;;;10.88;100.00
34103;BME280;20381;54.498;18.206;2023-05-16T04:12:21;98351.61;;;10.83;100.00
34103;BME280;20381;54.498;18.206;2023-05-16T04:14:48;98358.73;;;10.81;100.00
34103;BME280;20381;54.498;18.206;2023-05-16T04:17:14;98358.58;;;10.77;100.00
34103;BME280;20381;54.498;18.206;2023-05-16T04:19:40;98365.31;;;10.74;100.00
34103;BME280;20381;54.498;18.206;2023-05-16T04:22:06;98366.48;;;10.70;100.00
34103;BME280;20381;54.498;18.206;2023-05-16T04:24:33;98376.50;;;10.63;100.00
34103;BME280;20381;54.498;18.206;2023-05-16T04:26:59;98375.00;;;10.53;100.00
34103;BME280;20381;54.498;18.206;2023-05-16T04:29:29;98382.05;;;10.46;100.00
34103;BME280;20381;54.498;18.206;2023-05-16T04:31:57;98385.91;;;10.40;100.00
34103;BME280;20381;54.498;18.206;2023-05-16T04:34:24;98382.03;;;10.33;100.00
34103;BME280;20381;54.498;18.206;2023-05-16T04:36:52;98389.35;;;10.28;100.00
34103;BME280;20381;54.498;18.206;2023-05-16T04:39:18;98383.75;;;10.27;100.00
34103;BME280;20381;54.498;18.206;2023-05-16T04:41:45;98390.80;;;10.25;100.00
34103;BME280;20381;54.498;18.206;2023-05-16T04:44:11;98390.06;;;10.30;100.00
34103;BME280;20381;54.498;18.206;2023-05-16T04:46:37;98394.98;;;10.35;100.00
34103;BME280;20381;54.498;18.206;2023-05-16T04:49:04;98400.08;;;10.36;100.00
34103;BME280;20381;54.498;18.206;2023-05-16T04:51:30;98397.68;;;10.33;100.00
34103;BME280;20381;54.498;18.206;2023-05-16T04:53:59;98397.68;;;10.33;100.00
34103;BME280;20381;54.498;18.206;2023-05-16T04:56:25;98389.64;;;10.36;100.00
34103;BME280;20381;54.498;18.206;2023-05-16T04:58:52;98400.81;;;10.38;100.00
34103;BME280;20381;54.498;18.206;2023-05-16T05:01:19;98398.95;;;10.40;100.00
34103;BME280;20381;54.498;18.206;2023-05-16T05:03:48;98410.00;;;10.44;100.00
34103;BME280;20381;54.498;18.206;2023-05-16T05:06:15;98404.48;;;10.48;100.00
34103;BME280;20381;54.498;18.206;2023-05-16T05:08:41;98413.27;;;10.47;100.00
34103;BME280;20381;54.498;18.206;2023-05-16T05:11:07;98411.36;;;10.49;100.00
34103;BME280;20381;54.498;18.206;2023-05-16T05:13:33;98411.36;;;10.49;100.00
34103;BME280;20381;54.498;18.206;2023-05-16T05:15:59;98424.59;;;10.53;100.00
34103;BME280;20381;54.498;18.206;2023-05-16T05:18:26;98418.63;;;10.51;100.00
34103;BME280;20381;54.498;18.206;2023-05-16T05:20:53;98421.77;;;10.57;100.00
34103;BME280;20381;54.498;18.206;2023-05-16T05:23:19;98430.69;;;10.60;100.00
34103;BME280;20381;54.498;18.206;2023-05-16T05:25:47;98416.37;;;10.52;100.00
34103;BME280;20381;54.498;18.206;2023-05-16T05:28:15;98432.05;;;10.65;100.00
34103;BME280;20381;54.498;18.206;2023-05-16T05:30:43;98430.59;;;10.74;100.00
34103;BME280;20381;54.498;18.206;2023-05-16T05:33:10;98431.20;;;10.78;100.00
34103;BME280;20381;54.498;18.206;2023-05-16T05:35:39;98440.81;;;10.77;100.00
34103;BME280;20381;54.498;18.206;2023-05-16T05:38:05;98436.55;;;10.76;100.00
34103;BME280;20381;54.498;18.206;2023-05-16T05:40:31;98446.98;;;10.76;100.00
34103;BME280;20381;54.498;18.206;2023-05-16T05:42:57;98451.22;;;10.84;100.00
34103;BME280;20381;54.498;18.206;2023-05-16T05:45:24;98460.14;;;10.87;100.00
34103;BME280;20381;54.498;18.206;2023-05-16T05:47:50;98453.02;;;10.89;100.00
34103;BME280;20381;54.498;18.206;2023-05-16T05:50:16;98463.06;;;10.95;100.00
34103;BME280;20381;54.498;18.206;2023-05-16T05:52:42;98463.56;;;11.01;100.00
34103;BME280;20381;54.498;18.206;2023-05-16T05:55:09;98471.52;;;10.99;100.00
34103;BME280;20381;54.498;18.206;2023-05-16T05:57:35;98481.84;;;11.01;100.00
34103;BME280;20381;54.498;18.206;2023-05-16T06:00:03;98477.74;;;11.04;100.00
34103;BME280;20381;54.498;18.206;2023-05-16T06:02:30;98482.75;;;11.07;100.00
34103;BME280;20381;54.498;18.206;2023-05-16T06:04:58;98486.02;;;11.16;100.00
34103;BME280;20381;54.498;18.206;2023-05-16T06:07:24;98493.13;;;11.14;100.00
34103;BME280;20381;54.498;18.206;2023-05-16T06:09:51;98498.78;;;11.20;100.00
34103;BME280;20381;54.498;18.206;2023-05-16T06:12:17;98496.61;;;11.20;100.00
34103;BME280;20381;54.498;18.206;2023-05-16T06:14:43;98515.45;;;11.12;100.00
34103;BME280;20381;54.498;18.206;2023-05-16T06:17:09;98515.45;;;11.12;100.00
34103;BME280;20381;54.498;18.206;2023-05-16T06:19:36;98514.91;;;11.20;100.00
34103;BME280;20381;54.498;18.206;2023-05-16T06:22:02;98523.08;;;11.15;100.00
34103;BME280;20381;54.498;18.206;2023-05-16T06:24:29;98533.80;;;11.18;100.00
34103;BME280;20381;54.498;18.206;2023-05-16T06:26:55;98528.92;;;11.19;100.00
34103;BME280;20381;54.498;18.206;2023-05-16T06:29:22;98537.96;;;11.08;100.00
34103;BME280;20381;54.498;18.206;2023-05-16T06:31:49;98550.49;;;11.03;100.00
34103;BME280;20381;54.498;18.206;2023-05-16T06:34:15;98565.12;;;10.92;100.00
34103;BME280;20381;54.498;18.206;2023-05-16T06:36:43;98576.70;;;10.88;100.00
34103;BME280;20381;54.498;18.206;2023-05-16T06:39:09;98581.39;;;10.83;100.00
34103;BME280;20381;54.498;18.206;2023-05-16T06:41:37;98586.08;;;10.78;100.00
34103;BME280;20381;54.498;18.206;2023-05-16T06:44:05;98586.67;;;10.76;100.00
34103;BME280;20381;54.498;18.206;2023-05-16T06:46:36;98598.63;;;10.73;100.00
34103;BME280;20381;54.498;18.206;2023-05-16T06:49:01;98600.02;;;10.71;100.00
34103;BME280;20381;54.498;18.206;2023-05-16T06:51:28;98608.86;;;10.76;100.00
34103;BME280;20381;54.498;18.206;2023-05-16T06:53:54;98602.88;;;10.81;100.00
34103;BME280;20381;54.498;18.206;2023-05-16T06:56:22;98608.16;;;10.87;100.00
34103;BME280;20381;54.498;18.206;2023-05-16T06:58:49;98628.03;;;10.82;100.00
34103;BME280;20381;54.498;18.206;2023-05-16T07:01:17;98632.22;;;10.85;100.00
34103;BME280;20381;54.498;18.206;2023-05-16T07:03:43;98637.37;;;10.79;100.00
34103;BME280;20381;54.498;18.206;2023-05-16T07:06:10;98645.21;;;10.79;100.00
34103;BME280;20381;54.498;18.206;2023-05-16T07:08:36;98661.55;;;10.75;100.00
34103;BME280;20381;54.498;18.206;2023-05-16T07:11:04;98665.55;;;10.74;100.00
34103;BME280;20381;54.498;18.206;2023-05-16T07:13:31;98673.94;;;10.79;100.00
34103;BME280;20381;54.498;18.206;2023-05-16T07:15:57;98681.65;;;10.81;100.00
34103;BME280;20381;54.498;18.206;2023-05-16T07:18:23;98694.08;;;10.77;100.00
34103;BME280;20381;54.498;18.206;2023-05-16T07:20:50;98703.20;;;10.84;100.00
34103;BME280;20381;54.498;18.206;2023-05-16T07:23:16;98700.55;;;10.91;100.00
34103;BME280;20381;54.498;18.206;2023-05-16T07:25:45;98710.08;;;10.92;100.00
34103;BME280;20381;54.498;18.206;2023-05-16T07:28:11;98707.19;;;10.90;100.00
34103;BME280;20381;54.498;18.206;2023-05-16T07:30:37;98708.86;;;10.91;100.00
34103;BME280;20381;54.498;18.206;2023-05-16T07:33:04;98713.05;;;10.93;100.00
34103;BME280;20381;54.498;18.206;2023-05-16T07:35:30;98720.87;;;10.93;100.00
34103;BME280;20381;54.498;18.206;2023-05-16T07:37:57;98714.71;;;10.94;100.00
34103;BME280;20381;54.498;18.206;2023-05-16T07:40:25;98723.45;;;11.01;100.00
34103;BME280;20381;54.498;18.206;2023-05-16T07:42:53;98722.95;;;11.08;100.00
34103;BME280;20381;54.498;18.206;2023-05-16T07:45:20;98726.05;;;11.08;100.00
34103;BME280;20381;54.498;18.206;2023-05-16T07:47:46;98725.30;;;11.06;100.00
34103;BME280;20381;54.498;18.206;2023-05-16T07:50:16;98735.19;;;11.08;100.00
34103;BME280;20381;54.498;18.206;2023-05-16T07:52:42;98748.16;;;11.09;100.00
34103;BME280;20381;54.498;18.206;2023-05-16T07:55:09;98754.38;;;11.14;100.00
34103;BME280;20381;54.498;18.206;2023-05-16T07:57:35;98750.45;;;11.14;100.00
34103;BME280;20381;54.498;18.206;2023-05-16T08:00:03;98754.92;;;11.19;100.00
34103;BME280;20381;54.498;18.206;2023-05-16T08:02:33;98756.20;;;11.26;100.00
34103;BME280;20381;54.498;18.206;2023-05-16T08:05:00;98765.51;;;11.30;100.00
34103;BME280;20381;54.498;18.206;2023-05-16T08:07:27;98780.06;;;11.34;100.00
34103;BME280;20381;54.498;18.206;2023-05-16T08:09:55;98782.84;;;11.38;100.00
34103;BME280;20381;54.498;18.206;2023-05-16T08:12:23;98788.80;;;11.40;100.00
34103;BME280;20381;54.498;18.206;2023-05-16T08:14:49;98795.55;;;11.37;100.00
34103;BME280;20381;54.498;18.206;2023-05-16T08:17:16;98797.81;;;11.29;100.00
34103;BME280;20381;54.498;18.206;2023-05-16T08:19:42;98797.81;;;11.29;100.00
34103;BME280;20381;54.498;18.206;2023-05-16T08:22:10;98806.00;;;11.37;100.00
34103;BME280;20381;54.498;18.206;2023-05-16T08:24:37;98815.66;;;11.42;100.00
34103;BME280;20381;54.498;18.206;2023-05-16T08:27:04;98815.70;;;11.35;100.00
34103;BME280;20381;54.498;18.206;2023-05-16T08:29:30;98827.48;;;11.28;100.00
34103;BME280;20381;54.498;18.206;2023-05-16T08:31:57;98816.31;;;11.26;100.00
34103;BME280;20381;54.498;18.206;2023-05-16T08:34:24;98826.22;;;11.21;100.00
34103;BME280;20381;54.498;18.206;2023-05-16T08:36:53;98822.66;;;11.22;100.00
34103;BME280;20381;54.498;18.206;2023-05-16T08:39:31;98834.80;;;11.23;100.00
34103;BME280;20381;54.498;18.206;2023-05-16T08:41:57;98837.02;;;11.29;100.00
34103;BME280;20381;54.498;18.206;2023-05-16T08:44:28;98843.08;;;11.30;100.00
34103;BME280;20381;54.498;18.206;2023-05-16T08:46:53;98853.73;;;11.27;100.00
34103;BME280;20381;54.498;18.206;2023-05-16T08:49:21;98864.66;;;11.26;100.00
34103;BME280;20381;54.498;18.206;2023-05-16T08:51:51;98860.06;;;11.23;100.00
34103;BME280;20381;54.498;18.206;2023-05-16T08:54:18;98876.22;;;11.29;100.00
34103;BME280;20381;54.498;18.206;2023-05-16T08:56:45;98872.45;;;11.33;100.00
34103;BME280;20381;54.498;18.206;2023-05-16T08:59:17;98878.03;;;11.41;100.00
34103;BME280;20381;54.498;18.206;2023-05-16T09:01:42;98873.69;;;11.82;100.00
34103;BME280;20381;54.498;18.206;2023-05-16T09:04:11;98873.69;;;11.82;100.00
34103;BME280;20381;54.498;18.206;2023-05-16T09:06:41;98871.77;;;12.11;100.00
34103;BME280;20381;54.498;18.206;2023-05-16T09:09:11;98871.20;;;12.51;100.00
34103;BME280;20381;54.498;18.206;2023-05-16T09:11:42;98879.44;;;12.52;100.00
34103;BME280;20381;54.498;18.206;2023-05-16T09:14:11;98879.44;;;12.52;100.00
34103;BME280;20381;54.498;18.206;2023-05-16T09:16:38;98890.42;;;12.45;100.00
34103;BME280;20381;54.498;18.206;2023-05-16T09:19:10;98899.62;;;12.38;100.00
34103;BME280;20381;54.498;18.206;2023-05-16T09:21:34;98904.36;;;12.33;100.00
34103;BME280;20381;54.498;18.206;2023-05-16T09:24:05;98909.69;;;12.31;100.00
34103;BME280;20381;54.498;18.206;2023-05-16T09:26:35;98912.98;;;12.27;100.00
34103;BME280;20381;54.498;18.206;2023-05-16T09:29:11;98910.40;;;12.20;100.00
34103;BME280;20381;54.498;18.206;2023-05-16T09:31:37;98908.31;;;12.25;100.00
34103;BME280;20381;54.498;18.206;2023-05-16T09:34:09;98911.26;;;12.34;100.00
34103;BME280;20381;54.498;18.206;2023-05-16T09:36:40;98905.19;;;12.33;100.00
34103;BME280;20381;54.498;18.206;2023-05-16T09:39:09;98918.37;;;12.31;100.00
34103;BME280;20381;54.498;18.206;2023-05-16T09:41:37;98918.37;;;12.31;100.00
34103;BME280;20381;54.498;18.206;2023-05-16T09:44:04;98919.86;;;12.36;100.00
34103;BME280;20381;54.498;18.206;2023-05-16T09:46:33;98927.32;;;12.35;100.00
34103;BME280;20381;54.498;18.206;2023-05-16T09:49:02;98927.32;;;12.35;100.00
34103;BME280;20381;54.498;18.206;2023-05-16T09:51:33;98926.61;;;12.33;100.00
34103;BME280;20381;54.498;18.206;2023-05-16T09:53:59;98933.30;;;12.37;100.00
34103;BME280;20381;54.498;18.206;2023-05-16T09:56:28;98938.72;;;12.41;100.00
34103;BME280;20381;54.498;18.206;2023-05-16T09:58:57;98942.25;;;12.40;100.00
34103;BME280;20381;54.498;18.206;2023-05-16T10:01:24;98928.84;;;12.31;100.00
34103;BME280;20381;54.498;18.206;2023-05-16T10:03:53;98922.05;;;12.42;100.00
34103;BME280;20381;54.498;18.206;2023-05-16T10:06:20;98922.05;;;12.42;100.00
34103;BME280;20381;54.498;18.206;2023-05-16T10:08:47;98948.70;;;12.54;100.00
34103;BME280;20381;54.498;18.206;2023-05-16T10:11:15;98957.16;;;12.52;100.00
34103;BME280;20381;54.498;18.206;2023-05-16T10:13:45;98968.14;;;12.57;100.00
34103;BME280;20381;54.498;18.206;2023-05-16T10:16:13;98967.43;;;12.81;100.00
34103;BME280;20381;54.498;18.206;2023-05-16T10:18:41;98972.66;;;13.06;100.00
34103;BME280;20381;54.498;18.206;2023-05-16T10:21:12;98975.48;;;13.29;100.00
34103;BME280;20381;54.498;18.206;2023-05-16T10:23:44;98981.90;;;13.43;100.00
34103;BME280;20381;54.498;18.206;2023-05-16T10:26:10;98986.78;;;13.60;100.00
34103;BME280;20381;54.498;18.206;2023-05-16T10:28:40;98973.44;;;13.82;100.00
34103;BME280;20381;54.498;18.206;2023-05-16T10:31:14;98975.16;;;14.18;100.00
34103;BME280;20381;54.498;18.206;2023-05-16T10:33:38;98972.59;;;14.65;100.00
34103;BME280;20381;54.498;18.206;2023-05-16T10:36:08;98967.11;;;14.79;100.00
34103;BME280;20381;54.498;18.206;2023-05-16T10:38:36;98967.58;;;14.95;100.00
34103;BME280;20381;54.498;18.206;2023-05-16T10:41:04;98961.15;;;15.11;100.00
34103;BME280;20381;54.498;18.206;2023-05-16T10:43:32;98968.06;;;15.00;100.00
34103;BME280;20381;54.498;18.206;2023-05-16T10:46:04;98961.62;;;14.93;100.00
34103;BME280;20381;54.498;18.206;2023-05-16T10:48:33;98960.17;;;14.89;100.00
34103;BME280;20381;54.498;18.206;2023-05-16T10:51:00;98974.05;;;14.91;100.00
34103;BME280;20381;54.498;18.206;2023-05-16T11:01:22;98972.57;;;19.10;100.00
34103;BME280;20381;54.498;18.206;2023-05-16T11:04:07;98968.63;;;18.77;100.00
34103;BME280;20381;54.498;18.206;2023-05-16T11:06:48;98978.97;;;18.12;99.01
34103;BME280;20381;54.498;18.206;2023-05-16T11:11:52;98976.02;;;16.90;100.00
34103;BME280;20381;54.498;18.206;2023-05-16T11:17:06;98986.31;;;16.45;100.00
34103;BME280;20381;54.498;18.206;2023-05-16T11:25:09;99012.41;;;15.61;100.00
34103;BME280;20381;54.498;18.206;2023-05-16T11:27:44;99017.34;;;15.43;100.00
34103;BME280;20381;54.498;18.206;2023-05-16T11:30:21;99020.66;;;15.23;100.00
34103;BME280;20381;54.498;18.206;2023-05-16T11:32:46;99033.70;;;15.19;100.00
34103;BME280;20381;54.498;18.206;2023-05-16T11:35:15;99035.75;;;15.21;100.00
34103;BME280;20381;54.498;18.206;2023-05-16T11:37:44;99042.66;;;15.11;100.00
34103;BME280;20381;54.498;18.206;2023-05-16T11:40:13;99046.84;;;15.08;100.00
34103;BME280;20381;54.498;18.206;2023-05-16T11:42:46;99045.77;;;15.16;100.00
34103;BME280;20381;54.498;18.206;2023-05-16T11:45:18;99054.97;;;15.05;100.00
34103;BME280;20381;54.498;18.206;2023-05-16T11:47:50;99069.40;;;14.93;100.00
34103;BME280;20381;54.498;18.206;2023-05-16T11:50:18;99077.84;;;14.80;100.00
34103;BME280;20381;54.498;18.206;2023-05-16T11:52:49;99085.06;;;14.60;100.00
34103;BME280;20381;54.498;18.206;2023-05-16T11:55:24;99091.80;;;14.51;100.00
34103;BME280;20381;54.498;18.206;2023-05-16T11:57:51;99094.25;;;14.41;100.00
34103;BME280;20381;54.498;18.206;2023-05-16T12:00:24;99097.45;;;14.39;100.00
34103;BME280;20381;54.498;18.206;2023-05-16T12:02:53;99101.11;;;14.31;100.00
34103;BME280;20381;54.498;18.206;2023-05-16T12:05:20;99116.55;;;14.36;100.00
34103;BME280;20381;54.498;18.206;2023-05-16T12:07:48;99111.06;;;14.39;100.00
34103;BME280;20381;54.498;18.206;2023-05-16T12:10:16;99108.80;;;14.34;100.00
34103;BME280;20381;54.498;18.206;2023-05-16T12:12:47;99107.10;;;14.33;100.00
34103;BME280;20381;54.498;18.206;2023-05-16T12:15:14;99101.91;;;14.20;99.97
34103;BME280;20381;54.498;18.206;2023-05-16T12:17:41;99107.12;;;13.96;100.00
34103;BME280;20381;54.498;18.206;2023-05-16T12:20:11;99115.44;;;13.90;100.00
34103;BME280;20381;54.498;18.206;2023-05-16T12:22:44;99114.77;;;13.99;100.00
34103;BME280;20381;54.498;18.206;2023-05-16T12:25:26;99117.17;;;14.02;100.00
34103;BME280;20381;54.498;18.206;2023-05-16T12:27:54;99110.39;;;14.05;100.00
34103;BME280;20381;54.498;18.206;2023-05-16T12:30:27;99122.08;;;14.01;100.00
34103;BME280;20381;54.498;18.206;2023-05-16T12:33:01;99126.97;;;14.00;100.00
34103;BME280;20381;54.498;18.206;2023-05-16T12:35:32;99133.84;;;13.96;100.00
34103;BME280;20381;54.498;18.206;2023-05-16T12:38:05;99142.11;;;13.84;100.00
34103;BME280;20381;54.498;18.206;2023-05-16T12:40:33;99146.62;;;13.69;100.00
34103;BME280;20381;54.498;18.206;2023-05-16T12:43:01;99143.59;;;13.62;100.00
34103;BME280;20381;54.498;18.206;2023-05-16T12:45:27;99156.75;;;13.55;100.00
34103;BME280;20381;54.498;18.206;2023-05-16T12:47:54;99150.56;;;13.43;100.00
34103;BME280;20381;54.498;18.206;2023-05-16T12:50:20;99157.48;;;13.32;100.00
34103;BME280;20381;54.498;18.206;2023-05-16T12:52:52;99165.20;;;13.20;100.00
34103;BME280;20381;54.498;18.206;2023-05-16T12:55:21;99159.36;;;13.10;100.00
34103;BME280;20381;54.498;18.206;2023-05-16T12:57:48;99170.20;;;12.91;100.00
34103;BME280;20381;54.498;18.206;2023-05-16T13:00:16;99177.30;;;12.76;100.00
34103;BME280;20381;54.498;18.206;2023-05-16T13:02:44;99165.35;;;12.72;100.00
34103;BME280;20381;54.498;18.206;2023-05-16T13:05:34;99172.03;;;12.63;100.00
34103;BME280;20381;54.498;18.206;2023-05-16T13:07:57;99180.92;;;12.53;100.00
34103;BME280;20381;54.498;18.206;2023-05-16T13:10:38;99182.35;;;12.52;100.00
34103;BME280;20381;54.498;18.206;2023-05-16T13:13:07;99178.27;;;12.41;100.00